sensor_id;sensor_type;location;lat;lon;timestamp;P1;durP1;ratioP1;P2;durP2;ratioP2
27618;SDS011;15039;50.830;4.730;2023-04-03T00:01:35;6.10;;;4.03;;
27618;SDS011;15039;50.830;4.730;2023-04-03T00:04:03;6.82;;;4.70;;
27618;SDS011;15039;50.830;4.730;2023-04-03T00:06:30;7.47;;;3.95;;
27618;SDS011;15039;50.830;4.730;2023-04-03T00:08:55;5.30;;;4.28;;
27618;SDS011;15039;50.830;4.730;2023-04-03T00:11:21;6.43;;;4.15;;
27618;SDS011;15039;50.830;4.730;2023-04-03T00:13:47;7.18;;;4.70;;
27618;SDS011;15039;50.830;4.730;2023-04-03T00:16:12;5.40;;;3.95;;
27618;SDS011;15039;50.830;4.730;2023-04-03T00:18:39;6.40;;;4.45;;
27618;SDS011;15039;50.830;4.730;2023-04-03T00:21:05;5.10;;;4.15;;
27618;SDS011;15039;50.830;4.730;2023-04-03T00:23:31;5.53;;;4.60;;
27618;SDS011;15039;50.830;4.730;2023-04-03T00:25:57;4.60;;;4.10;;
27618;SDS011;15039;50.830;4.730;2023-04-03T00:28:22;4.63;;;4.00;;
27618;SDS011;15039;50.830;4.730;2023-04-03T00:30:49;5.00;;;4.50;;
27618;SDS011;15039;50.830;4.730;2023-04-03T00:33:15;5.13;;;4.50;;
27618;SDS011;15039;50.830;4.730;2023-04-03T00:35:40;4.65;;;4.20;;
27618;SDS011;15039;50.830;4.730;2023-04-03T00:38:07;5.20;;;4.25;;
27618;SDS011;15039;50.830;4.730;2023-04-03T00:40:37;7.80;;;4.38;;
27618;SDS011;15039;50.830;4.730;2023-04-03T00:43:13;4.35;;;3.95;;
27618;SDS011;15039;50.830;4.730;2023-04-03T00:45:50;6.85;;;3.95;;
27618;SDS011;15039;50.830;4.730;2023-04-03T00:48:21;7.25;;;4.22;;
27618;SDS011;15039;50.830;4.730;2023-04-03T00:51:00;4.97;;;4.00;;
27618;SDS011;15039;50.830;4.730;2023-04-03T00:54:02;7.55;;;4.43;;
27618;SDS011;15039;50.830;4.730;2023-04-03T00:56:23;4.82;;;3.95;;
27618;SDS011;15039;50.830;4.730;2023-04-03T00:58:54;5.28;;;4.25;;
27618;SDS011;15039;50.830;4.730;2023-04-03T01:01:22;5.30;;;3.80;;
27618;SDS011;15039;50.830;4.730;2023-04-03T01:03:50;6.65;;;3.80;;
27618;SDS011;15039;50.830;4.730;2023-04-03T01:06:17;5.93;;;4.20;;
27618;SDS011;15039;50.830;4.730;2023-04-03T01:08:59;6.32;;;3.78;;
27618;SDS011;15039;50.830;4.730;2023-04-03T01:11:25;3.90;;;3.50;;
27618;SDS011;15039;50.830;4.730;2023-04-03T01:13:51;4.65;;;3.80;;
27618;SDS011;15039;50.830;4.730;2023-04-03T01:16:16;4.65;;;4.20;;
27618;SDS011;15039;50.830;4.730;2023-04-03T01:18:42;6.40;;;4.13;;
27618;SDS011;15039;50.830;4.730;2023-04-03T01:21:14;4.95;;;3.95;;
27618;SDS011;15039;50.830;4.730;2023-04-03T01:26:47;5.88;;;4.10;;
27618;SDS011;15039;50.830;4.730;2023-04-03T01:29:13;5.85;;;4.20;;
27618;SDS011;15039;50.830;4.730;2023-04-03T01:31:52;5.13;;;4.20;;
27618;SDS011;15039;50.830;4.730;2023-04-03T01:34:20;6.15;;;4.43;;
27618;SDS011;15039;50.830;4.730;2023-04-03T01:36:46;6.68;;;4.43;;
27618;SDS011;15039;50.830;4.730;2023-04-03T01:39:12;5.80;;;4.75;;
27618;SDS011;15039;50.830;4.730;2023-04-03T01:41:37;6.57;;;4.22;;
27618;SDS011;15039;50.830;4.730;2023-04-03T01:44:03;5.03;;;4.47;;
27618;SDS011;15039;50.830;4.730;2023-04-03T01:46:29;4.22;;;3.83;;
27618;SDS011;15039;50.830;4.730;2023-04-03T01:48:55;5.80;;;4.07;;
27618;SDS011;15039;50.830;4.730;2023-04-03T01:51:21;6.65;;;4.38;;
27618;SDS011;15039;50.830;4.730;2023-04-03T01:53:46;4.85;;;4.35;;
27618;SDS011;15039;50.830;4.730;2023-04-03T01:56:12;6.90;;;4.25;;
27618;SDS011;15039;50.830;4.730;2023-04-03T01:58:38;5.65;;;4.50;;
27618;SDS011;15039;50.830;4.730;2023-04-03T02:01:03;4.93;;;4.25;;
27618;SDS011;15039;50.830;4.730;2023-04-03T02:03:30;4.35;;;3.95;;
27618;SDS011;15039;50.830;4.730;2023-04-03T02:05:56;6.10;;;4.50;;
27618;SDS011;15039;50.830;4.730;2023-04-03T02:08:21;4.55;;;4.15;;
27618;SDS011;15039;50.830;4.730;2023-04-03T02:10:47;5.13;;;4.03;;
27618;SDS011;15039;50.830;4.730;2023-04-03T02:13:14;6.22;;;4.30;;
27618;SDS011;15039;50.830;4.730;2023-04-03T02:15:40;5.40;;;4.40;;
27618;SDS011;15039;50.830;4.730;2023-04-03T02:18:06;5.63;;;4.13;;
27618;SDS011;15039;50.830;4.730;2023-04-03T02:20:32;4.63;;;3.85;;
27618;SDS011;15039;50.830;4.730;2023-04-03T02:22:58;4.75;;;4.18;;
27618;SDS011;15039;50.830;4.730;2023-04-03T02:25:25;4.05;;;3.75;;
27618;SDS011;15039;50.830;4.730;2023-04-03T02:27:51;4.90;;;4.32;;
27618;SDS011;15039;50.830;4.730;2023-04-03T02:30:16;6.00;;;4.43;;
27618;SDS011;15039;50.830;4.730;2023-04-03T02:32:43;6.30;;;4.65;;
27618;SDS011;15039;50.830;4.730;2023-04-03T02:35:09;6.55;;;4.43;;
27618;SDS011;15039;50.830;4.730;2023-04-03T02:37:36;4.88;;;4.38;;
27618;SDS011;15039;50.830;4.730;2023-04-03T02:40:02;4.88;;;4.32;;
27618;SDS011;15039;50.830;4.730;2023-04-03T02:42:28;8.60;;;4.78;;
27618;SDS011;15039;50.830;4.730;2023-04-03T02:44:54;6.78;;;4.32;;
27618;SDS011;15039;50.830;4.730;2023-04-03T02:47:20;5.70;;;4.55;;
27618;SDS011;15039;50.830;4.730;2023-04-03T02:49:46;5.35;;;3.85;;
27618;SDS011;15039;50.830;4.730;2023-04-03T02:52:12;7.07;;;4.60;;
27618;SDS011;15039;50.830;4.730;2023-04-03T02:54:38;6.22;;;4.05;;
27618;SDS011;15039;50.830;4.730;2023-04-03T02:57:04;5.15;;;3.83;;
27618;SDS011;15039;50.830;4.730;2023-04-03T02:59:30;5.97;;;4.07;;
27618;SDS011;15039;50.830;4.730;2023-04-03T03:01:55;5.38;;;4.32;;
27618;SDS011;15039;50.830;4.730;2023-04-03T03:04:21;6.93;;;4.65;;
27618;SDS011;15039;50.830;4.730;2023-04-03T03:06:47;5.70;;;4.55;;
27618;SDS011;15039;50.830;4.730;2023-04-03T03:09:13;4.85;;;4.45;;
27618;SDS011;15039;50.830;4.730;2023-04-03T03:11:39;5.93;;;4.63;;
27618;SDS011;15039;50.830;4.730;2023-04-03T03:14:05;5.75;;;4.68;;
27618;SDS011;15039;50.830;4.730;2023-04-03T03:16:30;6.00;;;4.60;;
27618;SDS011;15039;50.830;4.730;2023-04-03T03:18:56;7.18;;;5.10;;
27618;SDS011;15039;50.830;4.730;2023-04-03T03:21:22;7.43;;;5.10;;
27618;SDS011;15039;50.830;4.730;2023-04-03T03:23:48;7.18;;;5.13;;
27618;SDS011;15039;50.830;4.730;2023-04-03T03:26:13;5.28;;;4.78;;
27618;SDS011;15039;50.830;4.730;2023-04-03T03:28:39;5.55;;;5.00;;
27618;SDS011;15039;50.830;4.730;2023-04-03T03:31:06;5.78;;;5.07;;
27618;SDS011;15039;50.830;4.730;2023-04-03T03:33:32;6.13;;;5.50;;
27618;SDS011;15039;50.830;4.730;2023-04-03T03:35:58;5.57;;;5.07;;
27618;SDS011;15039;50.830;4.730;2023-04-03T03:38:24;6.30;;;5.05;;
27618;SDS011;15039;50.830;4.730;2023-04-03T03:40:50;9.73;;;5.43;;
27618;SDS011;15039;50.830;4.730;2023-04-03T03:43:17;6.22;;;5.28;;
27618;SDS011;15039;50.830;4.730;2023-04-03T03:45:43;9.27;;;6.13;;
27618;SDS011;15039;50.830;4.730;2023-04-03T03:48:10;7.28;;;5.93;;
27618;SDS011;15039;50.830;4.730;2023-04-03T03:50:36;8.63;;;5.40;;
27618;SDS011;15039;50.830;4.730;2023-04-03T03:53:01;7.03;;;5.25;;
27618;SDS011;15039;50.830;4.730;2023-04-03T03:55:27;8.27;;;5.70;;
27618;SDS011;15039;50.830;4.730;2023-04-03T03:57:53;5.60;;;5.10;;
27618;SDS011;15039;50.830;4.730;2023-04-03T04:00:18;6.13;;;5.30;;
27618;SDS011;15039;50.830;4.730;2023-04-03T04:02:44;6.93;;;5.63;;
27618;SDS011;15039;50.830;4.730;2023-04-03T04:05:10;5.63;;;5.07;;
27618;SDS011;15039;50.830;4.730;2023-04-03T04:10:23;7.68;;;5.47;;
27618;SDS011;15039;50.830;4.730;2023-04-03T04:12:49;6.20;;;5.55;;
27618;SDS011;15039;50.830;4.730;2023-04-03T04:15:16;6.95;;;5.10;;
27618;SDS011;15039;50.830;4.730;2023-04-03T04:17:42;6.90;;;6.10;;
27618;SDS011;15039;50.830;4.730;2023-04-03T04:20:07;6.65;;;5.43;;
27618;SDS011;15039;50.830;4.730;2023-04-03T04:22:33;7.78;;;5.75;;
27618;SDS011;15039;50.830;4.730;2023-04-03T04:24:59;6.53;;;5.50;;
27618;SDS011;15039;50.830;4.730;2023-04-03T04:27:25;6.15;;;5.38;;
27618;SDS011;15039;50.830;4.730;2023-04-03T04:29:50;7.75;;;5.97;;
27618;SDS011;15039;50.830;4.730;2023-04-03T04:32:16;7.10;;;6.07;;
27618;SDS011;15039;50.830;4.730;2023-04-03T04:34:42;6.90;;;6.15;;
27618;SDS011;15039;50.830;4.730;2023-04-03T04:37:07;6.88;;;5.85;;
27618;SDS011;15039;50.830;4.730;2023-04-03T04:39:33;8.82;;;6.20;;
27618;SDS011;15039;50.830;4.730;2023-04-03T04:42:00;7.95;;;5.85;;
27618;SDS011;15039;50.830;4.730;2023-04-03T04:44:25;7.90;;;5.82;;
27618;SDS011;15039;50.830;4.730;2023-04-03T04:46:51;11.80;;;6.30;;
27618;SDS011;15039;50.830;4.730;2023-04-03T04:49:18;8.27;;;5.75;;
27618;SDS011;15039;50.830;4.730;2023-04-03T04:51:44;7.70;;;5.93;;
27618;SDS011;15039;50.830;4.730;2023-04-03T04:54:09;7.03;;;6.03;;
27618;SDS011;15039;50.830;4.730;2023-04-03T04:56:36;7.80;;;5.57;;
27618;SDS011;15039;50.830;4.730;2023-04-03T04:59:02;8.85;;;6.45;;
27618;SDS011;15039;50.830;4.730;2023-04-03T05:01:27;7.60;;;6.13;;
27618;SDS011;15039;50.830;4.730;2023-04-03T05:03:53;9.88;;;6.63;;
27618;SDS011;15039;50.830;4.730;2023-04-03T05:06:19;7.88;;;6.18;;
27618;SDS011;15039;50.830;4.730;2023-04-03T05:08:45;8.02;;;6.30;;
27618;SDS011;15039;50.830;4.730;2023-04-03T05:11:11;9.18;;;6.25;;
27618;SDS011;15039;50.830;4.730;2023-04-03T05:13:36;8.05;;;5.95;;
27618;SDS011;15039;50.830;4.730;2023-04-03T05:16:02;10.00;;;6.13;;
27618;SDS011;15039;50.830;4.730;2023-04-03T05:18:28;10.50;;;6.30;;
27618;SDS011;15039;50.830;4.730;2023-04-03T05:20:54;9.63;;;6.75;;
27618;SDS011;15039;50.830;4.730;2023-04-03T05:23:19;9.80;;;7.15;;
27618;SDS011;15039;50.830;4.730;2023-04-03T05:25:45;8.90;;;6.60;;
27618;SDS011;15039;50.830;4.730;2023-04-03T05:28:12;9.38;;;7.00;;
27618;SDS011;15039;50.830;4.730;2023-04-03T05:30:38;12.13;;;7.13;;
27618;SDS011;15039;50.830;4.730;2023-04-03T05:33:03;8.90;;;7.32;;
27618;SDS011;15039;50.830;4.730;2023-04-03T05:35:29;8.93;;;6.88;;
27618;SDS011;15039;50.830;4.730;2023-04-03T05:37:55;9.77;;;7.45;;
27618;SDS011;15039;50.830;4.730;2023-04-03T05:40:21;8.90;;;7.32;;
27618;SDS011;15039;50.830;4.730;2023-04-03T05:42:47;9.95;;;7.55;;
27618;SDS011;15039;50.830;4.730;2023-04-03T05:45:12;9.88;;;7.15;;
27618;SDS011;15039;50.830;4.730;2023-04-03T05:47:38;9.75;;;7.35;;
27618;SDS011;15039;50.830;4.730;2023-04-03T05:50:04;10.02;;;7.57;;
27618;SDS011;15039;50.830;4.730;2023-04-03T05:52:31;10.15;;;7.93;;
27618;SDS011;15039;50.830;4.730;2023-04-03T05:55:01;9.20;;;7.47;;
27618;SDS011;15039;50.830;4.730;2023-04-03T05:57:26;10.00;;;8.15;;
27618;SDS011;15039;50.830;4.730;2023-04-03T05:59:52;10.57;;;7.90;;
27618;SDS011;15039;50.830;4.730;2023-04-03T06:02:20;8.27;;;6.85;;
27618;SDS011;15039;50.830;4.730;2023-04-03T06:04:48;10.13;;;8.10;;
27618;SDS011;15039;50.830;4.730;2023-04-03T06:07:16;10.07;;;7.97;;
27618;SDS011;15039;50.830;4.730;2023-04-03T06:09:49;12.57;;;9.23;;
27618;SDS011;15039;50.830;4.730;2023-04-03T06:12:19;14.73;;;8.70;;
27618;SDS011;15039;50.830;4.730;2023-04-03T06:14:45;12.80;;;8.77;;
27618;SDS011;15039;50.830;4.730;2023-04-03T06:17:10;10.32;;;8.85;;
27618;SDS011;15039;50.830;4.730;2023-04-03T06:19:37;12.35;;;9.18;;
27618;SDS011;15039;50.830;4.730;2023-04-03T06:22:02;11.93;;;8.77;;
27618;SDS011;15039;50.830;4.730;2023-04-03T06:24:28;12.13;;;10.20;;
27618;SDS011;15039;50.830;4.730;2023-04-03T06:26:55;13.90;;;10.25;;
27618;SDS011;15039;50.830;4.730;2023-04-03T06:29:21;16.02;;;10.93;;
27618;SDS011;15039;50.830;4.730;2023-04-03T06:31:47;12.55;;;10.00;;
27618;SDS011;15039;50.830;4.730;2023-04-03T06:34:14;10.90;;;9.40;;
27618;SDS011;15039;50.830;4.730;2023-04-03T06:36:42;13.20;;;9.63;;
27618;SDS011;15039;50.830;4.730;2023-04-03T06:39:09;13.82;;;10.55;;
27618;SDS011;15039;50.830;4.730;2023-04-03T06:41:42;11.75;;;10.07;;
27618;SDS011;15039;50.830;4.730;2023-04-03T06:44:08;13.20;;;10.68;;
27618;SDS011;15039;50.830;4.730;2023-04-03T06:46:36;16.17;;;10.02;;
27618;SDS011;15039;50.830;4.730;2023-04-03T06:49:02;13.43;;;11.23;;
27618;SDS011;15039;50.830;4.730;2023-04-03T06:51:29;12.45;;;11.15;;
27618;SDS011;15039;50.830;4.730;2023-04-03T06:53:57;15.32;;;9.60;;
27618;SDS011;15039;50.830;4.730;2023-04-03T06:56:24;16.42;;;9.77;;
27618;SDS011;15039;50.830;4.730;2023-04-03T06:58:51;11.63;;;9.90;;
27618;SDS011;15039;50.830;4.730;2023-04-03T07:01:19;14.02;;;9.93;;
27618;SDS011;15039;50.830;4.730;2023-04-03T07:03:46;9.77;;;8.80;;
27618;SDS011;15039;50.830;4.730;2023-04-03T07:06:13;10.38;;;9.10;;
27618;SDS011;15039;50.830;4.730;2023-04-03T07:08:40;15.93;;;9.77;;
27618;SDS011;15039;50.830;4.730;2023-04-03T07:11:07;12.15;;;8.40;;
27618;SDS011;15039;50.830;4.730;2023-04-03T07:13:34;11.25;;;9.07;;
27618;SDS011;15039;50.830;4.730;2023-04-03T07:16:01;11.63;;;8.63;;
27618;SDS011;15039;50.830;4.730;2023-04-03T07:18:28;10.07;;;8.10;;
27618;SDS011;15039;50.830;4.730;2023-04-03T07:20:54;12.32;;;8.60;;
27618;SDS011;15039;50.830;4.730;2023-04-03T07:23:20;9.68;;;8.05;;
27618;SDS011;15039;50.830;4.730;2023-04-03T07:25:46;14.40;;;10.00;;
27618;SDS011;15039;50.830;4.730;2023-04-03T07:28:14;9.90;;;8.90;;
27618;SDS011;15039;50.830;4.730;2023-04-03T07:30:54;9.98;;;7.88;;
27618;SDS011;15039;50.830;4.730;2023-04-03T07:33:33;9.88;;;7.07;;
27618;SDS011;15039;50.830;4.730;2023-04-03T07:36:00;7.40;;;6.43;;
27618;SDS011;15039;50.830;4.730;2023-04-03T07:38:26;7.45;;;6.45;;
27618;SDS011;15039;50.830;4.730;2023-04-03T07:40:52;7.28;;;6.35;;
27618;SDS011;15039;50.830;4.730;2023-04-03T07:43:19;11.88;;;6.60;;
27618;SDS011;15039;50.830;4.730;2023-04-03T07:45:48;8.18;;;6.35;;
27618;SDS011;15039;50.830;4.730;2023-04-03T07:48:16;8.02;;;5.22;;
27618;SDS011;15039;50.830;4.730;2023-04-03T07:50:43;7.20;;;5.03;;
27618;SDS011;15039;50.830;4.730;2023-04-03T07:53:09;8.13;;;5.10;;
27618;SDS011;15039;50.830;4.730;2023-04-03T07:55:35;6.60;;;5.03;;
27618;SDS011;15039;50.830;4.730;2023-04-03T07:58:07;6.53;;;5.22;;
27618;SDS011;15039;50.830;4.730;2023-04-03T08:00:38;5.63;;;4.50;;
27618;SDS011;15039;50.830;4.730;2023-04-03T08:03:04;6.60;;;4.53;;
27618;SDS011;15039;50.830;4.730;2023-04-03T08:05:31;8.30;;;4.68;;
27618;SDS011;15039;50.830;4.730;2023-04-03T08:07:57;5.68;;;4.03;;
27618;SDS011;15039;50.830;4.730;2023-04-03T08:10:23;5.03;;;4.00;;
27618;SDS011;15039;50.830;4.730;2023-04-03T08:12:48;5.82;;;4.20;;
27618;SDS011;15039;50.830;4.730;2023-04-03T08:15:14;6.03;;;4.10;;
27618;SDS011;15039;50.830;4.730;2023-04-03T08:17:41;5.10;;;3.30;;
27618;SDS011;15039;50.830;4.730;2023-04-03T08:20:07;4.00;;;3.40;;
27618;SDS011;15039;50.830;4.730;2023-04-03T08:22:33;9.82;;;4.20;;
27618;SDS011;15039;50.830;4.730;2023-04-03T08:24:59;8.93;;;4.13;;
27618;SDS011;15039;50.830;4.730;2023-04-03T08:27:26;6.05;;;3.47;;
27618;SDS011;15039;50.830;4.730;2023-04-03T08:29:53;5.70;;;3.42;;
27618;SDS011;15039;50.830;4.730;2023-04-03T08:32:20;7.15;;;3.22;;
27618;SDS011;15039;50.830;4.730;2023-04-03T08:34:45;4.28;;;3.30;;
27618;SDS011;15039;50.830;4.730;2023-04-03T08:37:11;5.88;;;3.40;;
27618;SDS011;15039;50.830;4.730;2023-04-03T08:39:37;3.75;;;2.97;;
27618;SDS011;15039;50.830;4.730;2023-04-03T08:42:05;3.30;;;2.83;;
27618;SDS011;15039;50.830;4.730;2023-04-03T08:47:27;4.50;;;2.70;;
27618;SDS011;15039;50.830;4.730;2023-04-03T08:50:04;3.25;;;2.63;;
27618;SDS011;15039;50.830;4.730;2023-04-03T08:52:37;2.50;;;2.25;;
27618;SDS011;15039;50.830;4.730;2023-04-03T08:57:45;3.67;;;2.67;;
27618;SDS011;15039;50.830;4.730;2023-04-03T09:00:18;4.25;;;2.53;;
27618;SDS011;15039;50.830;4.730;2023-04-03T09:02:52;3.55;;;2.22;;
27618;SDS011;15039;50.830;4.730;2023-04-03T09:05:31;4.15;;;2.15;;
27618;SDS011;15039;50.830;4.730;2023-04-03T09:08:07;3.45;;;2.30;;
27618;SDS011;15039;50.830;4.730;2023-04-03T09:11:14;2.33;;;1.98;;
27618;SDS011;15039;50.830;4.730;2023-04-03T09:16:40;4.55;;;2.10;;
27618;SDS011;15039;50.830;4.730;2023-04-03T09:22:21;3.58;;;2.50;;
27618;SDS011;15039;50.830;4.730;2023-04-03T09:27:28;4.25;;;2.28;;
27618;SDS011;15039;50.830;4.730;2023-04-03T09:29:56;3.53;;;2.38;;
27618;SDS011;15039;50.830;4.730;2023-04-03T09:34:53;4.13;;;2.33;;
27618;SDS011;15039;50.830;4.730;2023-04-03T09:37:35;3.92;;;2.20;;
27618;SDS011;15039;50.830;4.730;2023-04-03T09:40:03;7.85;;;2.45;;
27618;SDS011;15039;50.830;4.730;2023-04-03T09:42:30;11.50;;;3.28;;
27618;SDS011;15039;50.830;4.730;2023-04-03T09:44:58;6.95;;;2.92;;
27618;SDS011;15039;50.830;4.730;2023-04-03T09:47:30;4.13;;;2.53;;
27618;SDS011;15039;50.830;4.730;2023-04-03T09:52:38;5.22;;;2.35;;
27618;SDS011;15039;50.830;4.730;2023-04-03T09:55:15;3.97;;;1.98;;
27618;SDS011;15039;50.830;4.730;2023-04-03T09:57:44;3.92;;;2.50;;
27618;SDS011;15039;50.830;4.730;2023-04-03T10:00:21;5.18;;;2.65;;
27618;SDS011;15039;50.830;4.730;2023-04-03T10:02:53;4.18;;;2.45;;
27618;SDS011;15039;50.830;4.730;2023-04-03T10:05:53;3.13;;;1.90;;
27618;SDS011;15039;50.830;4.730;2023-04-03T10:10:38;4.00;;;2.17;;
27618;SDS011;15039;50.830;4.730;2023-04-03T10:13:05;4.80;;;3.08;;
27618;SDS011;15039;50.830;4.730;2023-04-03T10:15:39;4.55;;;2.10;;
27618;SDS011;15039;50.830;4.730;2023-04-03T10:18:23;3.65;;;1.90;;
27618;SDS011;15039;50.830;4.730;2023-04-03T10:23:51;2.20;;;1.60;;
27618;SDS011;15039;50.830;4.730;2023-04-03T10:31:56;2.83;;;1.73;;
27618;SDS011;15039;50.830;4.730;2023-04-03T10:34:42;1.92;;;1.48;;
27618;SDS011;15039;50.830;4.730;2023-04-03T10:42:50;3.83;;;1.30;;
27618;SDS011;15039;50.830;4.730;2023-04-03T10:45:31;2.22;;;1.40;;
27618;SDS011;15039;50.830;4.730;2023-04-03T10:48:16;4.25;;;1.83;;
27618;SDS011;15039;50.830;4.730;2023-04-03T10:56:41;2.63;;;1.63;;
27618;SDS011;15039;50.830;4.730;2023-04-03T11:01:49;2.88;;;1.90;;
27618;SDS011;15039;50.830;4.730;2023-04-03T11:04:19;2.10;;;1.30;;
27618;SDS011;15039;50.830;4.730;2023-04-03T11:06:58;3.17;;;1.30;;
27618;SDS011;15039;50.830;4.730;2023-04-03T11:09:31;1.60;;;1.33;;
27618;SDS011;15039;50.830;4.730;2023-04-03T11:12:13;3.42;;;1.38;;
27618;SDS011;15039;50.830;4.730;2023-04-03T11:14:44;5.17;;;1.57;;
27618;SDS011;15039;50.830;4.730;2023-04-03T11:22:45;2.67;;;1.30;;
27618;SDS011;15039;50.830;4.730;2023-04-03T11:25:23;2.85;;;1.50;;
27618;SDS011;15039;50.830;4.730;2023-04-03T11:28:23;1.80;;;1.50;;
27618;SDS011;15039;50.830;4.730;2023-04-03T11:33:57;2.40;;;1.23;;
27618;SDS011;15039;50.830;4.730;2023-04-03T11:36:49;2.47;;;1.40;;
27618;SDS011;15039;50.830;4.730;2023-04-03T11:44:51;3.17;;;1.27;;
27618;SDS011;15039;50.830;4.730;2023-04-03T11:47:44;2.22;;;1.50;;
27618;SDS011;15039;50.830;4.730;2023-04-03T12:14:01;2.20;;;1.23;;
27618;SDS011;15039;50.830;4.730;2023-04-03T12:16:30;1.98;;;1.25;;
27618;SDS011;15039;50.830;4.730;2023-04-03T12:26:50;1.52;;;1.23;;
27618;SDS011;15039;50.830;4.730;2023-04-03T12:47:04;0.90;;;0.77;;
27618;SDS011;15039;50.830;4.730;2023-04-03T12:49:41;0.82;;;0.77;;
27618;SDS011;15039;50.830;4.730;2023-04-03T12:54:50;1.42;;;0.65;;
27618;SDS011;15039;50.830;4.730;2023-04-03T12:59:42;1.05;;;0.88;;
27618;SDS011;15039;50.830;4.730;2023-04-03T13:04:48;1.50;;;0.90;;
27618;SDS011;15039;50.830;4.730;2023-04-03T13:07:23;1.85;;;1.20;;
27618;SDS011;15039;50.830;4.730;2023-04-03T13:10:00;2.90;;;1.15;;
27618;SDS011;15039;50.830;4.730;2023-04-03T13:12:53;2.00;;;1.25;;
27618;SDS011;15039;50.830;4.730;2023-04-03T13:18:35;1.77;;;0.90;;
27618;SDS011;15039;50.830;4.730;2023-04-03T13:21:23;1.27;;;1.02;;
27618;SDS011;15039;50.830;4.730;2023-04-03T13:23:52;1.15;;;0.90;;
27618;SDS011;15039;50.830;4.730;2023-04-03T13:26:21;0.82;;;0.82;;
27618;SDS011;15039;50.830;4.730;2023-04-03T13:28:49;1.95;;;0.98;;
27618;SDS011;15039;50.830;4.730;2023-04-03T13:31:17;0.80;;;0.80;;
27618;SDS011;15039;50.830;4.730;2023-04-03T13:36:26;2.63;;;1.50;;
27618;SDS011;15039;50.830;4.730;2023-04-03T13:39:38;2.92;;;1.10;;
27618;SDS011;15039;50.830;4.730;2023-04-03T13:41:51;2.53;;;1.20;;
27618;SDS011;15039;50.830;4.730;2023-04-03T13:46:49;1.08;;;0.90;;
27618;SDS011;15039;50.830;4.730;2023-04-03T13:49:20;1.45;;;1.00;;
27618;SDS011;15039;50.830;4.730;2023-04-03T13:51:46;1.75;;;0.88;;
27618;SDS011;15039;50.830;4.730;2023-04-03T13:54:20;3.90;;;1.40;;
27618;SDS011;15039;50.830;4.730;2023-04-03T13:56:55;1.38;;;1.00;;
27618;SDS011;15039;50.830;4.730;2023-04-03T14:04:31;1.58;;;1.25;;
27618;SDS011;15039;50.830;4.730;2023-04-03T14:07:11;2.90;;;1.20;;
27618;SDS011;15039;50.830;4.730;2023-04-03T14:09:38;1.50;;;1.20;;
27618;SDS011;15039;50.830;4.730;2023-04-03T14:12:06;3.65;;;1.13;;
27618;SDS011;15039;50.830;4.730;2023-04-03T14:14:35;3.30;;;1.10;;
27618;SDS011;15039;50.830;4.730;2023-04-03T14:17:09;3.08;;;1.40;;
27618;SDS011;15039;50.830;4.730;2023-04-03T14:19:41;2.28;;;1.23;;
27618;SDS011;15039;50.830;4.730;2023-04-03T14:22:19;1.40;;;1.17;;
27618;SDS011;15039;50.830;4.730;2023-04-03T14:24:53;2.80;;;1.27;;
27618;SDS011;15039;50.830;4.730;2023-04-03T14:29:47;2.22;;;1.08;;
27618;SDS011;15039;50.830;4.730;2023-04-03T14:32:14;3.17;;;1.42;;
27618;SDS011;15039;50.830;4.730;2023-04-03T14:34:41;2.47;;;1.02;;
27618;SDS011;15039;50.830;4.730;2023-04-03T14:37:16;1.10;;;1.00;;
27618;SDS011;15039;50.830;4.730;2023-04-03T14:39:45;1.65;;;1.05;;
27618;SDS011;15039;50.830;4.730;2023-04-03T14:42:15;3.65;;;1.10;;
27618;SDS011;15039;50.830;4.730;2023-04-03T14:44:42;3.78;;;1.55;;
27618;SDS011;15039;50.830;4.730;2023-04-03T14:47:11;2.42;;;1.00;;
27618;SDS011;15039;50.830;4.730;2023-04-03T14:49:38;3.83;;;1.20;;
27618;SDS011;15039;50.830;4.730;2023-04-03T14:52:04;1.35;;;1.20;;
27618;SDS011;15039;50.830;4.730;2023-04-03T14:54:30;1.50;;;1.08;;
27618;SDS011;15039;50.830;4.730;2023-04-03T14:56:57;2.00;;;1.50;;
27618;SDS011;15039;50.830;4.730;2023-04-03T14:59:24;2.60;;;1.20;;
27618;SDS011;15039;50.830;4.730;2023-04-03T15:01:51;2.03;;;1.27;;
27618;SDS011;15039;50.830;4.730;2023-04-03T15:04:20;1.08;;;0.98;;
27618;SDS011;15039;50.830;4.730;2023-04-03T15:06:46;1.20;;;1.10;;
27618;SDS011;15039;50.830;4.730;2023-04-03T15:09:26;2.72;;;1.58;;
27618;SDS011;15039;50.830;4.730;2023-04-03T15:11:54;2.58;;;1.33;;
27618;SDS011;15039;50.830;4.730;2023-04-03T15:14:21;2.85;;;1.70;;
27618;SDS011;15039;50.830;4.730;2023-04-03T15:16:48;5.82;;;2.00;;
27618;SDS011;15039;50.830;4.730;2023-04-03T15:19:13;1.92;;;1.30;;
27618;SDS011;15039;50.830;4.730;2023-04-03T15:21:39;2.85;;;1.30;;
27618;SDS011;15039;50.830;4.730;2023-04-03T15:24:05;3.08;;;1.35;;
27618;SDS011;15039;50.830;4.730;2023-04-03T15:26:31;3.45;;;1.67;;
27618;SDS011;15039;50.830;4.730;2023-04-03T15:28:57;1.98;;;1.35;;
27618;SDS011;15039;50.830;4.730;2023-04-03T15:31:32;2.03;;;1.10;;
27618;SDS011;15039;50.830;4.730;2023-04-03T15:34:17;2.33;;;1.50;;
27618;SDS011;15039;50.830;4.730;2023-04-03T15:36:46;2.58;;;1.48;;
27618;SDS011;15039;50.830;4.730;2023-04-03T15:39:13;2.47;;;1.40;;
27618;SDS011;15039;50.830;4.730;2023-04-03T15:41:39;3.05;;;1.15;;
27618;SDS011;15039;50.830;4.730;2023-04-03T15:44:05;3.92;;;1.50;;
27618;SDS011;15039;50.830;4.730;2023-04-03T15:46:32;1.45;;;1.20;;
27618;SDS011;15039;50.830;4.730;2023-04-03T15:48:57;2.53;;;1.30;;
27618;SDS011;15039;50.830;4.730;2023-04-03T15:51:23;2.75;;;1.48;;
27618;SDS011;15039;50.830;4.730;2023-04-03T15:53:49;2.13;;;1.40;;
27618;SDS011;15039;50.830;4.730;2023-04-03T15:56:16;15.57;;;1.60;;
27618;SDS011;15039;50.830;4.730;2023-04-03T15:58:41;2.58;;;1.55;;
27618;SDS011;15039;50.830;4.730;2023-04-03T16:01:08;2.00;;;1.58;;
27618;SDS011;15039;50.830;4.730;2023-04-03T16:03:35;2.00;;;1.30;;
27618;SDS011;15039;50.830;4.730;2023-04-03T16:06:01;2.78;;;1.50;;
27618;SDS011;15039;50.830;4.730;2023-04-03T16:08:26;3.20;;;1.55;;
27618;SDS011;15039;50.830;4.730;2023-04-03T16:10:52;4.32;;;2.10;;
27618;SDS011;15039;50.830;4.730;2023-04-03T16:13:18;3.00;;;1.70;;
27618;SDS011;15039;50.830;4.730;2023-04-03T16:15:44;2.60;;;1.33;;
27618;SDS011;15039;50.830;4.730;2023-04-03T16:18:10;4.07;;;1.65;;
27618;SDS011;15039;50.830;4.730;2023-04-03T16:20:36;2.28;;;1.27;;
27618;SDS011;15039;50.830;4.730;2023-04-03T16:23:02;3.08;;;1.70;;
27618;SDS011;15039;50.830;4.730;2023-04-03T16:25:29;2.53;;;1.75;;
27618;SDS011;15039;50.830;4.730;2023-04-03T16:27:55;2.53;;;1.65;;
27618;SDS011;15039;50.830;4.730;2023-04-03T16:30:21;3.20;;;1.80;;
27618;SDS011;15039;50.830;4.730;2023-04-03T16:32:47;1.90;;;1.23;;
27618;SDS011;15039;50.830;4.730;2023-04-03T16:35:13;5.32;;;1.60;;
27618;SDS011;15039;50.830;4.730;2023-04-03T16:37:39;1.77;;;1.30;;
27618;SDS011;15039;50.830;4.730;2023-04-03T16:40:09;2.65;;;1.55;;
27618;SDS011;15039;50.830;4.730;2023-04-03T16:42:36;4.13;;;1.70;;
27618;SDS011;15039;50.830;4.730;2023-04-03T16:45:02;2.70;;;1.35;;
27618;SDS011;15039;50.830;4.730;2023-04-03T16:47:28;2.72;;;1.27;;
27618;SDS011;15039;50.830;4.730;2023-04-03T16:49:54;2.92;;;1.58;;
27618;SDS011;15039;50.830;4.730;2023-04-03T16:52:20;1.95;;;1.30;;
27618;SDS011;15039;50.830;4.730;2023-04-03T16:54:46;1.92;;;1.33;;
27618;SDS011;15039;50.830;4.730;2023-04-03T16:57:11;4.50;;;1.40;;
27618;SDS011;15039;50.830;4.730;2023-04-03T16:59:37;2.45;;;1.40;;
27618;SDS011;15039;50.830;4.730;2023-04-03T17:02:03;3.22;;;1.48;;
27618;SDS011;15039;50.830;4.730;2023-04-03T17:04:28;1.67;;;1.20;;
27618;SDS011;15039;50.830;4.730;2023-04-03T17:06:54;1.90;;;1.52;;
27618;SDS011;15039;50.830;4.730;2023-04-03T17:09:20;2.40;;;1.40;;
27618;SDS011;15039;50.830;4.730;2023-04-03T17:11:47;2.08;;;1.50;;